sensor_id;sensor_type;location;lat;lon;timestamp;P1;durP1;ratioP1;P2;durP2;ratioP2
51066;SDS011;37112;45.892;-123.962;2023-02-12T00:00:34;17.20;;;3.20;;
51066;SDS011;37112;45.892;-123.962;2023-02-12T00:03:08;22.70;;;4.00;;
51066;SDS011;37112;45.892;-123.962;2023-02-12T00:05:22;20.90;;;3.80;;
51066;SDS011;37112;45.892;-123.962;2023-02-12T00:07:35;26.80;;;4.40;;
51066;SDS011;37112;45.892;-123.962;2023-02-12T00:09:49;19.60;;;5.50;;
51066;SDS011;37112;45.892;-123.962;2023-02-12T00:12:03;20.70;;;3.50;;
51066;SDS011;37112;45.892;-123.962;2023-02-12T00:14:17;20.40;;;4.00;;
51066;SDS011;37112;45.892;-123.962;2023-02-12T00:16:30;15.10;;;3.50;;
51066;SDS011;37112;45.892;-123.962;2023-02-12T00:18:44;13.30;;;2.80;;
51066;SDS011;37112;45.892;-123.962;2023-02-12T00:21:00;27.80;;;4.00;;
51066;SDS011;37112;45.892;-123.962;2023-02-12T00:23:15;23.40;;;6.50;;
51066;SDS011;37112;45.892;-123.962;2023-02-12T00:25:29;13.30;;;2.70;;
51066;SDS011;37112;45.892;-123.962;2023-02-12T00:27:42;12.90;;;3.10;;
51066;SDS011;37112;45.892;-123.962;2023-02-12T00:29:55;13.60;;;2.60;;
51066;SDS011;37112;45.892;-123.962;2023-02-12T00:32:09;14.10;;;2.00;;
51066;SDS011;37112;45.892;-123.962;2023-02-12T00:34:26;12.10;;;2.30;;
51066;SDS011;37112;45.892;-123.962;2023-02-12T00:36:39;17.60;;;2.50;;
51066;SDS011;37112;45.892;-123.962;2023-02-12T00:38:52;14.00;;;2.70;;
51066;SDS011;37112;45.892;-123.962;2023-02-12T00:41:06;8.90;;;2.10;;
51066;SDS011;37112;45.892;-123.962;2023-02-12T00:43:19;10.60;;;2.70;;
51066;SDS011;37112;45.892;-123.962;2023-02-12T00:45:32;11.90;;;2.60;;
51066;SDS011;37112;45.892;-123.962;2023-02-12T00:47:45;10.30;;;2.10;;
51066;SDS011;37112;45.892;-123.962;2023-02-12T00:49:58;15.40;;;2.70;;
51066;SDS011;37112;45.892;-123.962;2023-02-12T00:52:12;10.50;;;2.70;;
51066;SDS011;37112;45.892;-123.962;2023-02-12T00:54:25;17.50;;;2.00;;
51066;SDS011;37112;45.892;-123.962;2023-02-12T00:56:38;15.60;;;3.50;;
51066;SDS011;37112;45.892;-123.962;2023-02-12T00:58:51;16.50;;;3.30;;
51066;SDS011;37112;45.892;-123.962;2023-02-12T01:01:08;8.40;;;2.50;;
51066;SDS011;37112;45.892;-123.962;2023-02-12T01:03:21;13.30;;;2.40;;
51066;SDS011;37112;45.892;-123.962;2023-02-12T01:05:34;12.40;;;2.60;;
51066;SDS011;37112;45.892;-123.962;2023-02-12T01:07:51;11.00;;;1.90;;
51066;SDS011;37112;45.892;-123.962;2023-02-12T01:10:06;9.50;;;1.80;;
51066;SDS011;37112;45.892;-123.962;2023-02-12T01:12:21;11.50;;;1.60;;
51066;SDS011;37112;45.892;-123.962;2023-02-12T01:14:35;12.30;;;1.80;;
51066;SDS011;37112;45.892;-123.962;2023-02-12T01:16:49;21.40;;;2.40;;
51066;SDS011;37112;45.892;-123.962;2023-02-12T01:19:03;13.50;;;1.70;;
51066;SDS011;37112;45.892;-123.962;2023-02-12T01:21:17;14.50;;;2.40;;
51066;SDS011;37112;45.892;-123.962;2023-02-12T01:23:33;16.90;;;2.30;;
51066;SDS011;37112;45.892;-123.962;2023-02-12T01:25:46;8.80;;;2.90;;
51066;SDS011;37112;45.892;-123.962;2023-02-12T01:28:03;12.70;;;2.40;;
51066;SDS011;37112;45.892;-123.962;2023-02-12T01:30:16;10.50;;;2.50;;
51066;SDS011;37112;45.892;-123.962;2023-02-12T01:32:31;10.20;;;2.00;;
51066;SDS011;37112;45.892;-123.962;2023-02-12T01:34:44;7.70;;;1.60;;
51066;SDS011;37112;45.892;-123.962;2023-02-12T01:36:59;14.30;;;2.60;;
51066;SDS011;37112;45.892;-123.962;2023-02-12T01:39:13;6.50;;;1.40;;
51066;SDS011;37112;45.892;-123.962;2023-02-12T01:41:28;14.00;;;4.20;;
51066;SDS011;37112;45.892;-123.962;2023-02-12T01:43:43;14.70;;;2.40;;
51066;SDS011;37112;45.892;-123.962;2023-02-12T01:46:14;18.90;;;2.90;;
51066;SDS011;37112;45.892;-123.962;2023-02-12T01:48:28;11.60;;;2.30;;
51066;SDS011;37112;45.892;-123.962;2023-02-12T01:50:45;12.00;;;2.70;;
51066;SDS011;37112;45.892;-123.962;2023-02-12T01:52:59;19.80;;;2.90;;
51066;SDS011;37112;45.892;-123.962;2023-02-12T01:55:13;17.70;;;2.30;;
51066;SDS011;37112;45.892;-123.962;2023-02-12T01:57:28;11.10;;;2.60;;
51066;SDS011;37112;45.892;-123.962;2023-02-12T01:59:46;12.50;;;1.70;;
51066;SDS011;37112;45.892;-123.962;2023-02-12T02:02:02;14.00;;;2.10;;
51066;SDS011;37112;45.892;-123.962;2023-02-12T02:04:16;11.70;;;2.10;;
51066;SDS011;37112;45.892;-123.962;2023-02-12T02:06:35;16.70;;;2.10;;
51066;SDS011;37112;45.892;-123.962;2023-02-12T02:08:53;19.70;;;2.40;;
51066;SDS011;37112;45.892;-123.962;2023-02-12T02:11:06;13.60;;;3.30;;
51066;SDS011;37112;45.892;-123.962;2023-02-12T02:13:38;17.10;;;2.90;;
51066;SDS011;37112;45.892;-123.962;2023-02-12T02:16:09;12.20;;;2.80;;
51066;SDS011;37112;45.892;-123.962;2023-02-12T02:18:31;15.70;;;4.00;;
51066;SDS011;37112;45.892;-123.962;2023-02-12T02:24:01;24.90;;;5.80;;
51066;SDS011;37112;45.892;-123.962;2023-02-12T02:26:47;21.60;;;4.10;;
51066;SDS011;37112;45.892;-123.962;2023-02-12T02:29:19;26.30;;;3.20;;
51066;SDS011;37112;45.892;-123.962;2023-02-12T02:31:47;26.10;;;6.50;;
51066;SDS011;37112;45.892;-123.962;2023-02-12T02:34:07;13.50;;;4.30;;
51066;SDS011;37112;45.892;-123.962;2023-02-12T02:36:30;17.50;;;4.30;;
51066;SDS011;37112;45.892;-123.962;2023-02-12T02:39:06;18.00;;;4.20;;
51066;SDS011;37112;45.892;-123.962;2023-02-12T02:41:27;18.20;;;4.60;;
51066;SDS011;37112;45.892;-123.962;2023-02-12T02:43:45;20.30;;;4.50;;
51066;SDS011;37112;45.892;-123.962;2023-02-12T02:46:03;14.50;;;2.90;;
51066;SDS011;37112;45.892;-123.962;2023-02-12T02:48:20;17.30;;;4.10;;
51066;SDS011;37112;45.892;-123.962;2023-02-12T02:50:37;21.90;;;4.80;;
51066;SDS011;37112;45.892;-123.962;2023-02-12T02:52:56;24.40;;;6.00;;
51066;SDS011;37112;45.892;-123.962;2023-02-12T02:55:14;26.20;;;5.50;;
51066;SDS011;37112;45.892;-123.962;2023-02-12T02:57:33;17.70;;;5.00;;
51066;SDS011;37112;45.892;-123.962;2023-02-12T02:59:51;22.40;;;5.90;;
51066;SDS011;37112;45.892;-123.962;2023-02-12T03:02:12;29.00;;;7.50;;
51066;SDS011;37112;45.892;-123.962;2023-02-12T03:04:31;26.50;;;6.80;;
51066;SDS011;37112;45.892;-123.962;2023-02-12T03:06:49;26.10;;;6.90;;
51066;SDS011;37112;45.892;-123.962;2023-02-12T03:09:11;19.20;;;7.80;;
51066;SDS011;37112;45.892;-123.962;2023-02-12T03:11:28;24.20;;;7.10;;
51066;SDS011;37112;45.892;-123.962;2023-02-12T03:13:44;28.60;;;9.60;;
51066;SDS011;37112;45.892;-123.962;2023-02-12T03:16:02;24.70;;;8.20;;
51066;SDS011;37112;45.892;-123.962;2023-02-12T03:18:18;19.60;;;7.20;;
51066;SDS011;37112;45.892;-123.962;2023-02-12T03:20:36;15.40;;;7.40;;
51066;SDS011;37112;45.892;-123.962;2023-02-12T03:22:54;18.90;;;7.90;;
51066;SDS011;37112;45.892;-123.962;2023-02-12T03:25:14;30.40;;;8.90;;
51066;SDS011;37112;45.892;-123.962;2023-02-12T03:27:31;18.00;;;4.80;;
51066;SDS011;37112;45.892;-123.962;2023-02-12T03:29:47;13.10;;;6.10;;
51066;SDS011;37112;45.892;-123.962;2023-02-12T03:32:07;9.60;;;4.80;;
51066;SDS011;37112;45.892;-123.962;2023-02-12T03:34:33;19.60;;;5.10;;
51066;SDS011;37112;45.892;-123.962;2023-02-12T03:36:58;16.80;;;6.20;;
51066;SDS011;37112;45.892;-123.962;2023-02-12T03:39:15;20.80;;;4.80;;
51066;SDS011;37112;45.892;-123.962;2023-02-12T03:43:51;17.00;;;4.80;;
51066;SDS011;37112;45.892;-123.962;2023-02-12T03:46:11;16.80;;;4.50;;
51066;SDS011;37112;45.892;-123.962;2023-02-12T03:48:29;14.70;;;4.40;;
51066;SDS011;37112;45.892;-123.962;2023-02-12T03:50:46;10.00;;;4.70;;
51066;SDS011;37112;45.892;-123.962;2023-02-12T03:53:06;13.40;;;4.20;;
51066;SDS011;37112;45.892;-123.962;2023-02-12T03:55:19;12.70;;;5.60;;
51066;SDS011;37112;45.892;-123.962;2023-02-12T03:57:33;13.90;;;6.30;;
51066;SDS011;37112;45.892;-123.962;2023-02-12T03:59:50;24.90;;;9.30;;
51066;SDS011;37112;45.892;-123.962;2023-02-12T04:02:04;23.10;;;8.90;;
51066;SDS011;37112;45.892;-123.962;2023-02-12T04:04:17;24.30;;;9.60;;
51066;SDS011;37112;45.892;-123.962;2023-02-12T04:06:31;28.10;;;9.10;;
51066;SDS011;37112;45.892;-123.962;2023-02-12T04:08:46;17.50;;;8.40;;
51066;SDS011;37112;45.892;-123.962;2023-02-12T04:11:00;19.60;;;8.50;;
51066;SDS011;37112;45.892;-123.962;2023-02-12T04:13:27;19.50;;;9.10;;
51066;SDS011;37112;45.892;-123.962;2023-02-12T04:15:54;17.40;;;7.20;;
51066;SDS011;37112;45.892;-123.962;2023-02-12T04:18:26;14.70;;;6.40;;
51066;SDS011;37112;45.892;-123.962;2023-02-12T04:20:50;17.70;;;5.90;;
51066;SDS011;37112;45.892;-123.962;2023-02-12T04:23:14;19.00;;;6.30;;
51066;SDS011;37112;45.892;-123.962;2023-02-12T04:25:39;10.60;;;4.20;;
51066;SDS011;37112;45.892;-123.962;2023-02-12T04:28:07;6.20;;;3.30;;
51066;SDS011;37112;45.892;-123.962;2023-02-12T04:30:31;9.60;;;3.90;;
51066;SDS011;37112;45.892;-123.962;2023-02-12T04:32:47;9.00;;;2.30;;
51066;SDS011;37112;45.892;-123.962;2023-02-12T04:35:06;12.80;;;7.30;;
51066;SDS011;37112;45.892;-123.962;2023-02-12T04:37:24;10.90;;;4.30;;
51066;SDS011;37112;45.892;-123.962;2023-02-12T04:39:41;12.70;;;2.80;;
51066;SDS011;37112;45.892;-123.962;2023-02-12T04:41:55;13.50;;;2.70;;
51066;SDS011;37112;45.892;-123.962;2023-02-12T04:44:18;10.00;;;2.00;;
51066;SDS011;37112;45.892;-123.962;2023-02-12T04:46:34;9.70;;;1.80;;
51066;SDS011;37112;45.892;-123.962;2023-02-12T04:48:51;10.50;;;2.30;;
51066;SDS011;37112;45.892;-123.962;2023-02-12T04:51:05;11.50;;;2.50;;
51066;SDS011;37112;45.892;-123.962;2023-02-12T04:53:19;7.40;;;2.90;;
51066;SDS011;37112;45.892;-123.962;2023-02-12T04:55:33;14.30;;;3.30;;
51066;SDS011;37112;45.892;-123.962;2023-02-12T04:57:46;11.20;;;3.00;;
51066;SDS011;37112;45.892;-123.962;2023-02-12T04:59:59;7.60;;;2.30;;
51066;SDS011;37112;45.892;-123.962;2023-02-12T05:02:13;10.30;;;3.50;;
51066;SDS011;37112;45.892;-123.962;2023-02-12T05:04:26;10.10;;;2.80;;
51066;SDS011;37112;45.892;-123.962;2023-02-12T05:06:40;5.70;;;2.70;;
51066;SDS011;37112;45.892;-123.962;2023-02-12T05:08:54;8.10;;;2.70;;
51066;SDS011;37112;45.892;-123.962;2023-02-12T05:11:08;8.50;;;2.10;;
51066;SDS011;37112;45.892;-123.962;2023-02-12T05:13:22;9.10;;;2.60;;
51066;SDS011;37112;45.892;-123.962;2023-02-12T05:15:37;10.20;;;2.10;;
51066;SDS011;37112;45.892;-123.962;2023-02-12T05:17:50;7.50;;;1.60;;
51066;SDS011;37112;45.892;-123.962;2023-02-12T05:20:05;7.00;;;2.50;;
51066;SDS011;37112;45.892;-123.962;2023-02-12T05:22:20;10.90;;;2.30;;
51066;SDS011;37112;45.892;-123.962;2023-02-12T05:24:33;13.60;;;2.40;;
51066;SDS011;37112;45.892;-123.962;2023-02-12T05:26:47;13.70;;;2.70;;
51066;SDS011;37112;45.892;-123.962;2023-02-12T05:29:00;11.20;;;2.60;;
51066;SDS011;37112;45.892;-123.962;2023-02-12T05:31:15;5.90;;;1.70;;
51066;SDS011;37112;45.892;-123.962;2023-02-12T05:33:29;7.60;;;2.00;;
51066;SDS011;37112;45.892;-123.962;2023-02-12T05:35:43;6.50;;;2.10;;
51066;SDS011;37112;45.892;-123.962;2023-02-12T05:37:56;8.10;;;2.00;;
51066;SDS011;37112;45.892;-123.962;2023-02-12T05:40:14;11.00;;;2.10;;
51066;SDS011;37112;45.892;-123.962;2023-02-12T05:42:27;8.70;;;2.60;;
51066;SDS011;37112;45.892;-123.962;2023-02-12T05:44:41;9.40;;;2.70;;
51066;SDS011;37112;45.892;-123.962;2023-02-12T05:46:54;6.40;;;2.40;;
51066;SDS011;37112;45.892;-123.962;2023-02-12T05:49:07;9.40;;;3.60;;
51066;SDS011;37112;45.892;-123.962;2023-02-12T05:51:20;10.30;;;4.40;;
51066;SDS011;37112;45.892;-123.962;2023-02-12T05:53:34;11.10;;;3.20;;
51066;SDS011;37112;45.892;-123.962;2023-02-12T05:55:47;5.10;;;1.70;;
51066;SDS011;37112;45.892;-123.962;2023-02-12T05:58:01;3.10;;;0.90;;
51066;SDS011;37112;45.892;-123.962;2023-02-12T06:00:14;2.20;;;0.90;;
51066;SDS011;37112;45.892;-123.962;2023-02-12T06:02:29;9.00;;;1.60;;
51066;SDS011;37112;45.892;-123.962;2023-02-12T06:04:45;4.10;;;1.20;;
51066;SDS011;37112;45.892;-123.962;2023-02-12T06:06:58;4.90;;;1.20;;
51066;SDS011;37112;45.892;-123.962;2023-02-12T06:09:14;4.80;;;1.30;;
51066;SDS011;37112;45.892;-123.962;2023-02-12T06:11:28;4.30;;;0.90;;
51066;SDS011;37112;45.892;-123.962;2023-02-12T06:13:41;7.60;;;1.90;;
51066;SDS011;37112;45.892;-123.962;2023-02-12T06:15:54;10.20;;;2.70;;
51066;SDS011;37112;45.892;-123.962;2023-02-12T06:18:08;4.90;;;2.30;;
51066;SDS011;37112;45.892;-123.962;2023-02-12T06:20:22;5.30;;;2.60;;
51066;SDS011;37112;45.892;-123.962;2023-02-12T06:22:36;6.80;;;1.80;;
51066;SDS011;37112;45.892;-123.962;2023-02-12T06:24:50;3.90;;;1.10;;
51066;SDS011;37112;45.892;-123.962;2023-02-12T06:27:04;3.10;;;1.40;;
51066;SDS011;37112;45.892;-123.962;2023-02-12T06:29:17;7.00;;;1.20;;
51066;SDS011;37112;45.892;-123.962;2023-02-12T06:31:31;2.90;;;1.20;;
51066;SDS011;37112;45.892;-123.962;2023-02-12T06:33:45;8.80;;;1.50;;
51066;SDS011;37112;45.892;-123.962;2023-02-12T06:35:58;3.10;;;1.10;;
51066;SDS011;37112;45.892;-123.962;2023-02-12T06:38:15;3.80;;;1.10;;
51066;SDS011;37112;45.892;-123.962;2023-02-12T06:40:28;5.40;;;1.20;;
51066;SDS011;37112;45.892;-123.962;2023-02-12T06:42:41;4.00;;;1.60;;
51066;SDS011;37112;45.892;-123.962;2023-02-12T06:44:56;6.70;;;2.00;;
51066;SDS011;37112;45.892;-123.962;2023-02-12T06:47:10;3.90;;;1.40;;
51066;SDS011;37112;45.892;-123.962;2023-02-12T06:49:23;4.50;;;2.40;;
51066;SDS011;37112;45.892;-123.962;2023-02-12T06:51:37;5.40;;;1.80;;
51066;SDS011;37112;45.892;-123.962;2023-02-12T06:53:50;3.20;;;1.40;;
51066;SDS011;37112;45.892;-123.962;2023-02-12T06:56:05;3.80;;;1.50;;
51066;SDS011;37112;45.892;-123.962;2023-02-12T06:58:19;3.40;;;1.20;;
51066;SDS011;37112;45.892;-123.962;2023-02-12T07:00:33;3.10;;;1.10;;
51066;SDS011;37112;45.892;-123.962;2023-02-12T07:02:49;1.80;;;0.90;;
51066;SDS011;37112;45.892;-123.962;2023-02-12T07:05:04;19.90;;;5.70;;
51066;SDS011;37112;45.892;-123.962;2023-02-12T07:07:18;9.20;;;1.80;;
51066;SDS011;37112;45.892;-123.962;2023-02-12T07:09:31;3.40;;;1.40;;
51066;SDS011;37112;45.892;-123.962;2023-02-12T07:11:48;2.30;;;1.20;;
51066;SDS011;37112;45.892;-123.962;2023-02-12T07:14:03;4.50;;;1.80;;
51066;SDS011;37112;45.892;-123.962;2023-02-12T07:16:16;10.30;;;1.40;;
51066;SDS011;37112;45.892;-123.962;2023-02-12T07:18:31;4.50;;;1.30;;
51066;SDS011;37112;45.892;-123.962;2023-02-12T07:20:45;4.20;;;1.40;;
51066;SDS011;37112;45.892;-123.962;2023-02-12T07:22:58;6.10;;;1.50;;
51066;SDS011;37112;45.892;-123.962;2023-02-12T07:25:11;3.00;;;1.10;;
51066;SDS011;37112;45.892;-123.962;2023-02-12T07:27:24;1.70;;;1.20;;
51066;SDS011;37112;45.892;-123.962;2023-02-12T07:29:37;2.20;;;1.20;;
51066;SDS011;37112;45.892;-123.962;2023-02-12T07:31:51;2.90;;;1.50;;
51066;SDS011;37112;45.892;-123.962;2023-02-12T07:34:04;4.60;;;1.40;;
51066;SDS011;37112;45.892;-123.962;2023-02-12T07:36:18;1.50;;;0.80;;
51066;SDS011;37112;45.892;-123.962;2023-02-12T07:38:32;3.10;;;1.10;;
51066;SDS011;37112;45.892;-123.962;2023-02-12T07:40:46;1.30;;;0.80;;
51066;SDS011;37112;45.892;-123.962;2023-02-12T07:42:59;5.50;;;1.10;;
51066;SDS011;37112;45.892;-123.962;2023-02-12T07:45:14;1.90;;;1.00;;
51066;SDS011;37112;45.892;-123.962;2023-02-12T07:47:27;1.60;;;1.00;;
51066;SDS011;37112;45.892;-123.962;2023-02-12T07:49:42;3.80;;;0.90;;
51066;SDS011;37112;45.892;-123.962;2023-02-12T07:51:55;11.70;;;4.90;;
51066;SDS011;37112;45.892;-123.962;2023-02-12T07:54:08;5.50;;;2.50;;
51066;SDS011;37112;45.892;-123.962;2023-02-12T07:56:24;1.80;;;1.30;;
51066;SDS011;37112;45.892;-123.962;2023-02-12T07:58:39;5.40;;;1.30;;
51066;SDS011;37112;45.892;-123.962;2023-02-12T08:00:53;4.40;;;1.40;;
51066;SDS011;37112;45.892;-123.962;2023-02-12T08:03:06;3.20;;;1.10;;
51066;SDS011;37112;45.892;-123.962;2023-02-12T08:05:19;2.50;;;1.00;;
51066;SDS011;37112;45.892;-123.962;2023-02-12T08:07:32;3.50;;;1.40;;
51066;SDS011;37112;45.892;-123.962;2023-02-12T08:09:45;3.90;;;1.30;;
51066;SDS011;37112;45.892;-123.962;2023-02-12T08:11:58;2.20;;;1.40;;
51066;SDS011;37112;45.892;-123.962;2023-02-12T08:14:12;2.00;;;1.00;;
51066;SDS011;37112;45.892;-123.962;2023-02-12T08:16:26;3.80;;;1.30;;
51066;SDS011;37112;45.892;-123.962;2023-02-12T08:18:40;3.40;;;0.80;;
51066;SDS011;37112;45.892;-123.962;2023-02-12T08:20:53;1.70;;;1.10;;
51066;SDS011;37112;45.892;-123.962;2023-02-12T08:23:09;1.00;;;0.80;;
51066;SDS011;37112;45.892;-123.962;2023-02-12T08:25:23;2.40;;;0.70;;
51066;SDS011;37112;45.892;-123.962;2023-02-12T08:27:37;3.90;;;1.10;;
51066;SDS011;37112;45.892;-123.962;2023-02-12T08:29:53;2.40;;;0.90;;
51066;SDS011;37112;45.892;-123.962;2023-02-12T08:32:06;2.10;;;1.00;;
51066;SDS011;37112;45.892;-123.962;2023-02-12T08:34:21;2.00;;;1.00;;
51066;SDS011;37112;45.892;-123.962;2023-02-12T08:36:38;3.60;;;1.10;;
51066;SDS011;37112;45.892;-123.962;2023-02-12T08:38:51;6.00;;;1.10;;
51066;SDS011;37112;45.892;-123.962;2023-02-12T08:41:07;4.10;;;1.20;;
51066;SDS011;37112;45.892;-123.962;2023-02-12T08:43:21;2.70;;;0.90;;
51066;SDS011;37112;45.892;-123.962;2023-02-12T08:45:35;4.40;;;0.90;;
51066;SDS011;37112;45.892;-123.962;2023-02-12T08:47:48;4.40;;;1.50;;
51066;SDS011;37112;45.892;-123.962;2023-02-12T08:50:01;2.80;;;1.60;;
51066;SDS011;37112;45.892;-123.962;2023-02-12T08:52:15;3.70;;;2.30;;
51066;SDS011;37112;45.892;-123.962;2023-02-12T08:54:29;5.90;;;3.10;;
51066;SDS011;37112;45.892;-123.962;2023-02-12T08:56:42;2.50;;;1.30;;
51066;SDS011;37112;45.892;-123.962;2023-02-12T08:58:55;3.30;;;1.00;;
51066;SDS011;37112;45.892;-123.962;2023-02-12T09:01:11;2.80;;;1.30;;
51066;SDS011;37112;45.892;-123.962;2023-02-12T09:03:26;3.60;;;0.90;;
51066;SDS011;37112;45.892;-123.962;2023-02-12T09:05:40;2.10;;;1.20;;
51066;SDS011;37112;45.892;-123.962;2023-02-12T09:07:54;3.40;;;1.10;;
51066;SDS011;37112;45.892;-123.962;2023-02-12T09:10:09;0.90;;;0.80;;
51066;SDS011;37112;45.892;-123.962;2023-02-12T09:12:22;2.40;;;1.30;;
51066;SDS011;37112;45.892;-123.962;2023-02-12T09:14:35;3.30;;;1.40;;
51066;SDS011;37112;45.892;-123.962;2023-02-12T09:16:48;2.90;;;1.00;;
51066;SDS011;37112;45.892;-123.962;2023-02-12T09:19:04;2.20;;;1.40;;
51066;SDS011;37112;45.892;-123.962;2023-02-12T09:21:17;3.20;;;0.90;;
51066;SDS011;37112;45.892;-123.962;2023-02-12T09:23:31;2.70;;;0.80;;
51066;SDS011;37112;45.892;-123.962;2023-02-12T09:25:45;2.50;;;1.00;;
51066;SDS011;37112;45.892;-123.962;2023-02-12T09:27:59;4.90;;;1.20;;
51066;SDS011;37112;45.892;-123.962;2023-02-12T09:30:13;1.70;;;0.90;;
51066;SDS011;37112;45.892;-123.962;2023-02-12T09:32:27;5.10;;;1.30;;
51066;SDS011;37112;45.892;-123.962;2023-02-12T09:34:40;3.60;;;1.30;;
51066;SDS011;37112;45.892;-123.962;2023-02-12T09:36:53;2.70;;;0.90;;
51066;SDS011;37112;45.892;-123.962;2023-02-12T09:39:06;11.30;;;2.30;;
51066;SDS011;37112;45.892;-123.962;2023-02-12T09:44:01;2.80;;;0.80;;
51066;SDS011;37112;45.892;-123.962;2023-02-12T09:46:21;2.60;;;0.90;;
51066;SDS011;37112;45.892;-123.962;2023-02-12T09:48:43;0.90;;;0.90;;
51066;SDS011;37112;45.892;-123.962;2023-02-12T09:51:05;1.90;;;0.90;;
51066;SDS011;37112;45.892;-123.962;2023-02-12T09:53:20;5.90;;;2.80;;
51066;SDS011;37112;45.892;-123.962;2023-02-12T09:55:34;1.40;;;1.10;;
51066;SDS011;37112;45.892;-123.962;2023-02-12T09:57:48;5.30;;;1.50;;
51066;SDS011;37112;45.892;-123.962;2023-02-12T10:00:04;4.00;;;0.90;;
51066;SDS011;37112;45.892;-123.962;2023-02-12T10:02:20;4.00;;;1.00;;
51066;SDS011;37112;45.892;-123.962;2023-02-12T10:04:33;2.00;;;1.20;;
51066;SDS011;37112;45.892;-123.962;2023-02-12T10:07:06;2.10;;;1.20;;
51066;SDS011;37112;45.892;-123.962;2023-02-12T10:09:32;0.90;;;0.90;;
51066;SDS011;37112;45.892;-123.962;2023-02-12T10:12:02;2.70;;;1.00;;
51066;SDS011;37112;45.892;-123.962;2023-02-12T10:14:33;3.10;;;0.80;;
51066;SDS011;37112;45.892;-123.962;2023-02-12T10:17:18;1.40;;;0.90;;
51066;SDS011;37112;45.892;-123.962;2023-02-12T10:19:45;1.90;;;1.00;;
51066;SDS011;37112;45.892;-123.962;2023-02-12T10:22:22;3.30;;;0.90;;
51066;SDS011;37112;45.892;-123.962;2023-02-12T10:24:51;3.40;;;1.30;;
51066;SDS011;37112;45.892;-123.962;2023-02-12T10:27:19;7.50;;;1.30;;
51066;SDS011;37112;45.892;-123.962;2023-02-12T10:29:42;2.80;;;1.00;;
51066;SDS011;37112;45.892;-123.962;2023-02-12T10:31:59;2.50;;;1.30;;
51066;SDS011;37112;45.892;-123.962;2023-02-12T10:34:17;1.10;;;0.80;;
51066;SDS011;37112;45.892;-123.962;2023-02-12T10:36:36;2.60;;;1.00;;
51066;SDS011;37112;45.892;-123.962;2023-02-12T10:38:52;1.90;;;0.90;;
51066;SDS011;37112;45.892;-123.962;2023-02-12T10:41:11;2.60;;;1.00;;
51066;SDS011;37112;45.892;-123.962;2023-02-12T10:43:26;2.20;;;1.00;;
51066;SDS011;37112;45.892;-123.962;2023-02-12T10:45:40;1.40;;;1.00;;
51066;SDS011;37112;45.892;-123.962;2023-02-12T10:47:53;1.40;;;1.00;;
51066;SDS011;37112;45.892;-123.962;2023-02-12T10:50:21;1.40;;;0.70;;
51066;SDS011;37112;45.892;-123.962;2023-02-12T10:52:43;2.50;;;1.00;;
51066;SDS011;37112;45.892;-123.962;2023-02-12T10:55:02;1.80;;;0.90;;
51066;SDS011;37112;45.892;-123.962;2023-02-12T10:57:32;1.80;;;0.90;;
51066;SDS011;37112;45.892;-123.962;2023-02-12T10:59:50;1.80;;;0.70;;
51066;SDS011;37112;45.892;-123.962;2023-02-12T11:02:13;1.40;;;0.90;;
51066;SDS011;37112;45.892;-123.962;2023-02-12T11:04:31;2.40;;;0.80;;
51066;SDS011;37112;45.892;-123.962;2023-02-12T11:06:55;1.40;;;0.80;;
51066;SDS011;37112;45.892;-123.962;2023-02-12T11:09:17;1.50;;;0.80;;
51066;SDS011;37112;45.892;-123.962;2023-02-12T11:11:42;1.90;;;0.80;;
51066;SDS011;37112;45.892;-123.962;2023-02-12T11:13:56;2.00;;;1.00;;
51066;SDS011;37112;45.892;-123.962;2023-02-12T11:16:12;3.30;;;1.00;;
51066;SDS011;37112;45.892;-123.962;2023-02-12T11:18:36;1.50;;;0.80;;
51066;SDS011;37112;45.892;-123.962;2023-02-12T11:20:50;1.30;;;1.10;;
51066;SDS011;37112;45.892;-123.962;2023-02-12T11:23:05;1.80;;;1.20;;
51066;SDS011;37112;45.892;-123.962;2023-02-12T11:25:33;2.70;;;1.00;;
51066;SDS011;37112;45.892;-123.962;2023-02-12T11:27:47;3.50;;;0.90;;
51066;SDS011;37112;45.892;-123.962;2023-02-12T11:30:16;1.60;;;0.80;;
51066;SDS011;37112;45.892;-123.962;2023-02-12T11:32:30;2.20;;;2.00;;
51066;SDS011;37112;45.892;-123.962;2023-02-12T11:34:43;0.80;;;0.80;;
51066;SDS011;37112;45.892;-123.962;2023-02-12T11:37:15;2.00;;;0.80;;
51066;SDS011;37112;45.892;-123.962;2023-02-12T11:39:29;2.80;;;0.80;;
51066;SDS011;37112;45.892;-123.962;2023-02-12T11:41:47;3.10;;;0.80;;
51066;SDS011;37112;45.892;-123.962;2023-02-12T11:44:09;2.50;;;0.80;;
51066;SDS011;37112;45.892;-123.962;2023-02-12T11:46:27;2.70;;;1.20;;
51066;SDS011;37112;45.892;-123.962;2023-02-12T11:48:41;0.80;;;0.70;;
51066;SDS011;37112;45.892;-123.962;2023-02-12T11:50:58;3.20;;;0.90;;
51066;SDS011;37112;45.892;-123.962;2023-02-12T11:53:19;1.20;;;0.80;;
51066;SDS011;37112;45.892;-123.962;2023-02-12T11:55:35;4.20;;;1.10;;
51066;SDS011;37112;45.892;-123.962;2023-02-12T11:57:51;5.40;;;1.10;;
51066;SDS011;37112;45.892;-123.962;2023-02-12T12:00:14;1.30;;;0.90;;
51066;SDS011;37112;45.892;-123.962;2023-02-12T12:02:30;3.00;;;0.80;;
51066;SDS011;37112;45.892;-123.962;2023-02-12T12:04:47;2.20;;;0.70;;
51066;SDS011;37112;45.892;-123.962;2023-02-12T12:07:04;7.40;;;1.10;;
51066;SDS011;37112;45.892;-123.962;2023-02-12T12:09:22;1.80;;;1.20;;
51066;SDS011;37112;45.892;-123.962;2023-02-12T12:11:42;2.50;;;0.80;;
51066;SDS011;37112;45.892;-123.962;2023-02-12T12:14:03;3.10;;;1.00;;
51066;SDS011;37112;45.892;-123.962;2023-02-12T12:16:23;3.70;;;0.90;;
51066;SDS011;37112;45.892;-123.962;2023-02-12T12:19:01;4.00;;;1.30;;
51066;SDS011;37112;45.892;-123.962;2023-02-12T12:21:47;3.20;;;1.10;;
51066;SDS011;37112;45.892;-123.962;2023-02-12T12:24:08;2.90;;;0.70;;
51066;SDS011;37112;45.892;-123.962;2023-02-12T12:26:25;4.10;;;0.90;;
51066;SDS011;37112;45.892;-123.962;2023-02-12T12:28:43;2.10;;;0.80;;
51066;SDS011;37112;45.892;-123.962;2023-02-12T12:31:02;2.60;;;0.90;;
51066;SDS011;37112;45.892;-123.962;2023-02-12T12:35:57;2.30;;;1.30;;
51066;SDS011;37112;45.892;-123.962;2023-02-12T12:38:20;4.50;;;0.90;;
51066;SDS011;37112;45.892;-123.962;2023-02-12T12:40:44;2.10;;;1.10;;
51066;SDS011;37112;45.892;-123.962;2023-02-12T12:43:07;1.80;;;0.80;;
51066;SDS011;37112;45.892;-123.962;2023-02-12T12:45:25;1.30;;;1.00;;
51066;SDS011;37112;45.892;-123.962;2023-02-12T12:48:06;3.60;;;1.30;;
51066;SDS011;37112;45.892;-123.962;2023-02-12T12:50:30;1.20;;;0.80;;
51066;SDS011;37112;45.892;-123.962;2023-02-12T12:55:45;2.70;;;0.70;;
51066;SDS011;37112;45.892;-123.962;2023-02-12T12:58:08;1.50;;;0.90;;
51066;SDS011;37112;45.892;-123.962;2023-02-12T13:00:29;2.60;;;0.90;;
51066;SDS011;37112;45.892;-123.962;2023-02-12T13:05:39;3.50;;;0.90;;
51066;SDS011;37112;45.892;-123.962;2023-02-12T13:08:02;3.80;;;0.90;;
51066;SDS011;37112;45.892;-123.962;2023-02-12T13:10:21;4.90;;;1.20;;
51066;SDS011;37112;45.892;-123.962;2023-02-12T13:12:50;4.30;;;1.30;;
51066;SDS011;37112;45.892;-123.962;2023-02-12T13:15:16;3.30;;;1.10;;
51066;SDS011;37112;45.892;-123.962;2023-02-12T13:17:38;1.40;;;0.90;;
51066;SDS011;37112;45.892;-123.962;2023-02-12T13:20:00;4.50;;;1.10;;
51066;SDS011;37112;45.892;-123.962;2023-02-12T13:22:15;3.40;;;0.90;;